Time;durP1;ratioP1;P1;durP2;ratioP2;P2;SDS_P1;SDS_P2;PMS_P1;PMS_P2;Temp;Humidity;BMP_temperature;BMP_pressure;BME280_temperature;BME280_humidity;BME280_pressure;Samples;Min_cycle;Max_cycle;Signal;HPM_P1;HPM_P2
2021/05/18 00:00:10;;;;;;;1.70;0.85;;;;;;;;;;4961664;28;20034;-83
2021/05/18 00:02:56;;;;;;;1.05;0.60;;;;;;;;;;4965035;28;20035;-84
2021/05/18 00:05:43;;;;;;;1.42;0.65;;;;;;;;;;4953556;28;20052;-83
2021/05/18 00:08:29;;;;;;;1.15;0.65;;;;;;;;;;4959990;28;20489;-84
2021/05/18 00:14:24;;;;;;;0.73;0.60;;;;;;;;;;4956529;28;20034;-84
2021/05/18 00:17:09;;;;;;;1.75;0.70;;;;;;;;;;4957277;28;20037;-82
2021/05/18 00:19:54;;;;;;;1.33;0.70;;;;;;;;;;4958749;28;20030;-85
2021/05/18 00:22:39;;;;;;;0.95;0.70;;;;;;;;;;4956656;28;20069;-82
2021/05/18 00:25:24;;;;;;;1.85;0.77;;;;;;;;;;4965442;28;20116;-82
2021/05/18 00:28:10;;;;;;;0.65;0.60;;;;;;;;;;4964411;28;20056;-83
2021/05/18 00:30:56;;;;;;;2.70;0.70;;;;;;;;;;4959586;28;20030;-83
2021/05/18 00:33:43;;;;;;;1.80;0.63;;;;;;;;;;4959361;28;20026;-83
2021/05/18 00:36:28;;;;;;;3.05;0.70;;;;;;;;;;4967894;28;20030;-84
2021/05/18 00:39:13;;;;;;;1.25;0.50;;;;;;;;;;4961996;28;20044;-84
2021/05/18 00:41:58;;;;;;;1.23;0.70;;;;;;;;;;4956071;28;20168;-84
2021/05/18 00:44:43;;;;;;;0.80;0.50;;;;;;;;;;4964777;28;20093;-83
2021/05/18 00:47:29;;;;;;;2.20;0.65;;;;;;;;;;4962017;28;20355;-84
2021/05/18 00:50:14;;;;;;;0.77;0.65;;;;;;;;;;4958828;28;20022;-83
2021/05/18 00:52:59;;;;;;;0.50;0.50;;;;;;;;;;4948897;28;20386;-86
2021/05/18 00:58:36;;;;;;;1.73;0.70;;;;;;;;;;4962807;28;20528;-85
2021/05/18 01:01:21;;;;;;;1.00;0.60;;;;;;;;;;4959105;28;20393;-84
2021/05/18 01:04:12;;;;;;;1.85;0.77;;;;;;;;;;4960578;28;20085;-84
2021/05/18 01:06:58;;;;;;;0.75;0.60;;;;;;;;;;4963473;28;20042;-83
2021/05/18 01:09:43;;;;;;;1.58;0.52;;;;;;;;;;4964662;28;20030;-84
2021/05/18 01:12:29;;;;;;;1.23;0.63;;;;;;;;;;4955488;28;20014;-84
2021/05/18 01:15:14;;;;;;;1.15;0.63;;;;;;;;;;4961561;28;20611;-83
2021/05/18 01:17:59;;;;;;;3.15;1.02;;;;;;;;;;4963403;28;20626;-85
2021/05/18 01:20:57;;;;;;;2.00;0.75;;;;;;;;;;4963361;28;20030;-84
2021/05/18 01:23:43;;;;;;;2.47;0.88;;;;;;;;;;4950252;28;20041;-82
2021/05/18 01:26:30;;;;;;;8.98;3.75;;;;;;;;;;4968839;28;20443;-83
2021/05/18 01:29:15;;;;;;;2.88;1.67;;;;;;;;;;4961765;28;20031;-83
2021/05/18 01:32:06;;;;;;;2.10;1.10;;;;;;;;;;4963053;28;20096;-83
2021/05/18 01:34:51;;;;;;;1.55;0.65;;;;;;;;;;4962569;28;20030;-83
2021/05/18 01:37:37;;;;;;;1.13;0.60;;;;;;;;;;4962958;28;20426;-84
2021/05/18 01:43:11;;;;;;;1.27;0.77;;;;;;;;;;4953766;28;20034;-83
2021/05/18 01:45:56;;;;;;;1.92;0.60;;;;;;;;;;4965363;28;20030;-84
2021/05/18 01:48:47;;;;;;;1.35;0.73;;;;;;;;;;4963358;28;20154;-83
2021/05/18 01:51:34;;;;;;;4.03;0.63;;;;;;;;;;4962363;28;20033;-83
2021/05/18 01:54:24;;;;;;;1.95;0.80;;;;;;;;;;4965196;28;20054;-82
2021/05/18 01:57:20;;;;;;;2.28;0.70;;;;;;;;;;4967850;28;20426;-83
2021/05/18 02:00:07;;;;;;;3.35;1.15;;;;;;;;;;4957697;28;20039;-82
2021/05/18 02:02:53;;;;;;;2.10;0.68;;;;;;;;;;4962144;28;20033;-82
2021/05/18 02:05:40;;;;;;;3.22;0.65;;;;;;;;;;4948264;28;20124;-83
2021/05/18 02:08:25;;;;;;;0.68;0.68;;;;;;;;;;4964143;28;20030;-83
2021/05/18 02:11:10;;;;;;;2.28;0.77;;;;;;;;;;4955727;28;20023;-83
2021/05/18 02:13:58;;;;;;;1.25;0.80;;;;;;;;;;4963775;28;20025;-83
2021/05/18 02:16:44;;;;;;;5.13;0.80;;;;;;;;;;4962397;28;20802;-83
2021/05/18 02:19:50;;;;;;;0.80;0.70;;;;;;;;;;4964437;28;20037;-84
2021/05/18 02:25:40;;;;;;;0.68;0.68;;;;;;;;;;4960172;28;20046;-84
2021/05/18 02:28:25;;;;;;;2.13;0.80;;;;;;;;;;4964786;28;20038;-84
2021/05/18 02:31:11;;;;;;;0.77;0.60;;;;;;;;;;4955725;28;20090;-83
2021/05/18 02:33:56;;;;;;;2.22;0.70;;;;;;;;;;4961723;28;20035;-83
2021/05/18 02:36:41;;;;;;;1.50;0.73;;;;;;;;;;4963830;28;20034;-83
2021/05/18 02:39:26;;;;;;;1.77;0.80;;;;;;;;;;4965654;28;20042;-84
2021/05/18 02:42:12;;;;;;;3.85;0.90;;;;;;;;;;4958640;28;20062;-84
2021/05/18 02:45:29;;;;;;;1.98;0.80;;;;;;;;;;4956750;28;20105;-84
2021/05/18 02:51:07;;;;;;;1.52;0.73;;;;;;;;;;4965614;28;20502;-84
2021/05/18 02:53:52;;;;;;;1.25;0.70;;;;;;;;;;4962543;28;20058;-83
2021/05/18 02:59:23;;;;;;;1.73;1.10;;;;;;;;;;4958099;28;20034;-83
2021/05/18 03:02:09;;;;;;;1.48;0.75;;;;;;;;;;4959535;28;20042;-82
2021/05/18 03:04:54;;;;;;;2.85;0.80;;;;;;;;;;4957646;28;20034;-82
2021/05/18 03:07:39;;;;;;;1.77;0.80;;;;;;;;;;4959569;28;20014;-84
2021/05/18 03:10:24;;;;;;;1.30;0.70;;;;;;;;;;4962882;28;20722;-84
2021/05/18 03:13:09;;;;;;;1.65;0.65;;;;;;;;;;4954769;28;20117;-83
2021/05/18 03:15:55;;;;;;;3.03;0.70;;;;;;;;;;4968279;28;20022;-83
2021/05/18 03:18:40;;;;;;;1.65;0.57;;;;;;;;;;4955426;28;20023;-83
2021/05/18 03:21:25;;;;;;;1.52;0.70;;;;;;;;;;4958654;28;20061;-82
2021/05/18 03:24:11;;;;;;;0.68;0.65;;;;;;;;;;4954585;28;20027;-82
2021/05/18 03:26:56;;;;;;;0.60;0.60;;;;;;;;;;4954111;28;20054;-83
2021/05/18 03:29:43;;;;;;;5.57;0.80;;;;;;;;;;4958457;28;20317;-86
2021/05/18 03:35:32;;;;;;;1.63;0.90;;;;;;;;;;4956127;28;20030;-85
2021/05/18 03:38:28;;;;;;;1.58;0.80;;;;;;;;;;4959266;28;20023;-84
2021/05/18 03:41:26;;;;;;;2.35;0.90;;;;;;;;;;4958000;28;20031;-83
2021/05/18 03:44:21;;;;;;;1.40;0.75;;;;;;;;;;4955161;28;20058;-83
2021/05/18 04:17:21;;;;;;;3.28;0.88;;;;;;;;;;4972480;28;20170;-84
2021/05/18 04:20:21;;;;;;;1.60;0.80;;;;;;;;;;4972795;28;20022;-84
2021/05/18 04:41:47;;;;;;;3.80;1.30;;;;;;;;;;4966880;28;20023;-82
2021/05/18 04:51:13;;;;;;;3.47;1.30;;;;;;;;;;4963765;28;20465;-84
2021/05/18 04:59:55;;;;;;;1.92;1.13;;;;;;;;;;4962915;28;20023;-83
2021/05/18 05:14:38;;;;;;;3.40;1.38;;;;;;;;;;4961760;28;20030;-84
2021/05/18 05:17:23;;;;;;;3.08;1.30;;;;;;;;;;4958684;28;20027;-83
2021/05/18 05:20:08;;;;;;;2.70;1.45;;;;;;;;;;4962815;28;20082;-84
2021/05/18 05:22:54;;;;;;;1.83;0.80;;;;;;;;;;4959560;28;20019;-85
2021/05/18 05:25:39;;;;;;;3.15;0.95;;;;;;;;;;4958944;28;20113;-86
2021/05/18 05:28:25;;;;;;;1.55;1.10;;;;;;;;;;4955949;28;20493;-85
2021/05/18 05:31:10;;;;;;;1.90;1.10;;;;;;;;;;4961196;28;20129;-85
2021/05/18 05:33:55;;;;;;;2.72;0.95;;;;;;;;;;4957196;28;20030;-85
2021/05/18 05:36:40;;;;;;;1.92;1.00;;;;;;;;;;4957730;28;20053;-85
2021/05/18 05:39:26;;;;;;;2.97;1.00;;;;;;;;;;4955856;28;20453;-85
2021/05/18 05:42:11;;;;;;;2.45;1.10;;;;;;;;;;4954838;28;20030;-84
2021/05/18 05:44:56;;;;;;;2.50;1.30;;;;;;;;;;4955914;28;20492;-86
2021/05/18 05:47:41;;;;;;;3.22;1.23;;;;;;;;;;4958968;28;20069;-85
2021/05/18 05:50:26;;;;;;;3.28;1.38;;;;;;;;;;4943403;28;20030;-84
2021/05/18 05:53:12;;;;;;;3.00;1.23;;;;;;;;;;4958422;28;20039;-83
2021/05/18 05:55:57;;;;;;;4.30;1.20;;;;;;;;;;4953667;28;20066;-82
2021/05/18 05:58:43;;;;;;;1.58;0.98;;;;;;;;;;4958025;28;20466;-84
2021/05/18 06:01:32;;;;;;;2.20;1.42;;;;;;;;;;4961972;28;20453;-83
2021/05/18 06:04:17;;;;;;;10.30;7.17;;;;;;;;;;4951785;28;20031;-82
2021/05/18 06:07:03;;;;;;;5.72;3.58;;;;;;;;;;4956440;28;20093;-87
2021/05/18 06:09:53;;;;;;;3.28;1.55;;;;;;;;;;4956206;28;20105;-83
2021/05/18 06:34:13;;;;;;;11.57;1.48;;;;;;;;;;4958305;28;20035;-79
2021/05/18 06:42:43;;;;;;;3.28;1.30;;;;;;;;;;4951353;28;20054;-80
2021/05/18 06:48:26;;;;;;;2.05;1.38;;;;;;;;;;4956793;28;20447;-79
2021/05/18 06:51:11;;;;;;;2.38;1.30;;;;;;;;;;4956117;28;20110;-79
2021/05/18 06:53:56;;;;;;;46.95;34.65;;;;;;;;;;4958707;28;20420;-80
2021/05/18 06:56:44;;;;;;;33.17;24.20;;;;;;;;;;4959484;28;20071;-81
2021/05/18 07:02:15;;;;;;;3.28;1.20;;;;;;;;;;4959478;28;20025;-80
2021/05/18 07:05:00;;;;;;;3.40;1.10;;;;;;;;;;4960365;28;20031;-80
2021/05/18 07:07:49;;;;;;;4.38;1.10;;;;;;;;;;4957225;28;20026;-81
2021/05/18 07:10:34;;;;;;;4.57;1.13;;;;;;;;;;4961314;28;20033;-81
2021/05/18 07:13:20;;;;;;;1.52;1.00;;;;;;;;;;4957437;28;20034;-80
2021/05/18 07:16:05;;;;;;;1.75;1.20;;;;;;;;;;4956866;28;20298;-81
2021/05/18 07:18:51;;;;;;;4.88;1.15;;;;;;;;;;4951571;28;20054;-81
2021/05/18 07:21:36;;;;;;;3.28;1.17;;;;;;;;;;4957444;28;20105;-81
2021/05/18 07:24:26;;;;;;;2.60;2.00;;;;;;;;;;4956379;28;20023;-81
2021/05/18 07:27:11;;;;;;;7.25;2.33;;;;;;;;;;4958913;28;20039;-81
2021/05/18 07:29:57;;;;;;;5.55;1.65;;;;;;;;;;4956637;28;20089;-82
2021/05/18 07:32:43;;;;;;;2.58;1.25;;;;;;;;;;4952288;28;20034;-81
2021/05/18 07:35:28;;;;;;;1.55;0.93;;;;;;;;;;4958392;28;20054;-82
2021/05/18 07:38:13;;;;;;;2.50;1.00;;;;;;;;;;4955557;28;20026;-81
2021/05/18 07:40:59;;;;;;;2.13;1.65;;;;;;;;;;4957483;28;20022;-81
2021/05/18 07:43:44;;;;;;;6.20;1.13;;;;;;;;;;4953499;28;20496;-81
2021/05/18 07:46:29;;;;;;;4.25;1.20;;;;;;;;;;4960247;28;20108;-81
2021/05/18 08:07:40;;;;;;;5.30;2.40;;;;;;;;;;4948070;28;20621;-84
2021/05/18 08:13:17;;;;;;;1.88;1.10;;;;;;;;;;4954926;28;20165;-82
2021/05/18 09:30:34;;;;;;;3.03;1.30;;;;;;;;;;4960307;28;20030;-80
2021/05/18 09:48:48;;;;;;;4.22;1.48;;;;;;;;;;4965757;28;20105;-81
2021/05/18 10:36:34;;;;;;;2.13;1.10;;;;;;;;;;4958245;28;20517;-79
2021/05/18 10:39:25;;;;;;;2.28;1.40;;;;;;;;;;4956369;28;20490;-77
2021/05/18 10:42:11;;;;;;;3.95;1.30;;;;;;;;;;4951480;28;20027;-77
2021/05/18 10:44:57;;;;;;;4.63;1.50;;;;;;;;;;4960525;28;20038;-77
2021/05/18 10:47:45;;;;;;;5.07;1.40;;;;;;;;;;4958712;28;20454;-78
2021/05/18 10:50:40;;;;;;;3.67;1.30;;;;;;;;;;4954227;28;20081;-78
2021/05/18 10:53:29;;;;;;;1.80;1.23;;;;;;;;;;4957972;28;20033;-78
2021/05/18 10:56:14;;;;;;;5.53;1.73;;;;;;;;;;4956692;28;20034;-77
2021/05/18 10:58:59;;;;;;;18.02;10.57;;;;;;;;;;4943850;28;20034;-78
2021/05/18 11:01:45;;;;;;;5.53;1.48;;;;;;;;;;4954105;28;20133;-78
2021/05/18 11:04:31;;;;;;;7.00;1.70;;;;;;;;;;4960041;28;20034;-82
2021/05/18 11:07:20;;;;;;;4.63;1.25;;;;;;;;;;4955255;28;20066;-83
2021/05/18 11:10:13;;;;;;;3.88;1.30;;;;;;;;;;4956930;28;20023;-81
2021/05/18 11:13:01;;;;;;;3.05;1.23;;;;;;;;;;4965737;28;20023;-81
2021/05/18 11:15:46;;;;;;;2.85;1.17;;;;;;;;;;4948545;28;20406;-83
2021/05/18 11:18:32;;;;;;;5.45;1.60;;;;;;;;;;4957519;28;20113;-83
2021/05/18 11:21:20;;;;;;;3.35;1.13;;;;;;;;;;4958260;28;20034;-83
2021/05/18 11:24:12;;;;;;;4.50;1.55;;;;;;;;;;4960101;28;20031;-83
2021/05/18 11:26:57;;;;;;;4.85;1.45;;;;;;;;;;4953159;28;20532;-84
2021/05/18 11:29:43;;;;;;;4.57;0.98;;;;;;;;;;4961523;28;20611;-84
2021/05/18 11:32:28;;;;;;;3.63;1.17;;;;;;;;;;4962545;28;20081;-85
2021/05/18 11:35:13;;;;;;;3.30;1.30;;;;;;;;;;4957976;28;20764;-85
2021/05/18 11:38:00;;;;;;;8.52;3.03;;;;;;;;;;4956558;28;20131;-84
2021/05/18 11:40:51;;;;;;;2.72;1.10;;;;;;;;;;4959314;28;20034;-83
2021/05/18 11:43:37;;;;;;;2.10;0.98;;;;;;;;;;4964921;28;20030;-85
2021/05/18 11:46:23;;;;;;;5.32;1.10;;;;;;;;;;4957200;28;20038;-84
2021/05/18 11:49:13;;;;;;;1.63;0.77;;;;;;;;;;4956449;28;20049;-83
2021/05/18 11:52:01;;;;;;;2.58;1.08;;;;;;;;;;4962979;28;20022;-84
2021/05/18 11:54:46;;;;;;;5.50;0.93;;;;;;;;;;4952804;28;20505;-85
2021/05/18 11:57:35;;;;;;;4.90;1.58;;;;;;;;;;4956345;28;20030;-85
2021/05/18 12:00:21;;;;;;;2.85;0.90;;;;;;;;;;4958220;28;20054;-85
2021/05/18 12:03:08;;;;;;;4.43;1.00;;;;;;;;;;4956643;28;20035;-85
2021/05/18 12:05:55;;;;;;;3.70;1.02;;;;;;;;;;4959158;28;20039;-84
2021/05/18 12:08:40;;;;;;;4.20;0.90;;;;;;;;;;4953980;28;20058;-84
2021/05/18 12:11:25;;;;;;;4.50;1.00;;;;;;;;;;4954671;28;20445;-89
2021/05/18 12:14:11;;;;;;;1.85;1.00;;;;;;;;;;4952215;28;20068;-84
2021/05/18 12:16:56;;;;;;;4.00;1.77;;;;;;;;;;4956651;28;20105;-84
2021/05/18 12:19:42;;;;;;;2.35;1.00;;;;;;;;;;4959184;28;20027;-85
2021/05/18 12:22:28;;;;;;;2.88;0.90;;;;;;;;;;4958122;28;20035;-86
2021/05/18 12:25:29;;;;;;;4.50;1.13;;;;;;;;;;4958326;28;20109;-83
2021/05/18 12:28:18;;;;;;;4.03;1.00;;;;;;;;;;4959972;28;20031;-84
2021/05/18 12:31:06;;;;;;;2.92;0.95;;;;;;;;;;4958088;28;20027;-84
2021/05/18 12:33:52;;;;;;;3.42;0.80;;;;;;;;;;4982783;28;20038;-84
2021/05/18 12:36:47;;;;;;;0.73;0.70;;;;;;;;;;4966121;28;20030;-84
2021/05/18 12:39:33;;;;;;;2.58;1.10;;;;;;;;;;4962886;28;20531;-85
2021/05/18 12:42:25;;;;;;;5.75;1.30;;;;;;;;;;4957187;28;20046;-87
2021/05/18 12:45:20;;;;;;;3.85;1.42;;;;;;;;;;4965015;28;20063;-84
2021/05/18 12:48:06;;;;;;;5.03;1.20;;;;;;;;;;4964270;28;20030;-84
2021/05/18 12:50:51;;;;;;;1.67;0.82;;;;;;;;;;4955284;28;20026;-85
2021/05/18 12:53:36;;;;;;;1.85;0.82;;;;;;;;;;4966319;28;20093;-84
2021/05/18 12:56:29;;;;;;;3.42;1.10;;;;;;;;;;4955046;28;20061;-83
2021/05/18 12:59:16;;;;;;;7.30;1.15;;;;;;;;;;4980014;28;20018;-85
2021/05/18 13:02:01;;;;;;;3.33;1.05;;;;;;;;;;4953453;28;20011;-83
2021/05/18 13:04:46;;;;;;;3.42;0.80;;;;;;;;;;4955773;28;20030;-83
2021/05/18 13:07:32;;;;;;;3.35;0.90;;;;;;;;;;4957272;28;20485;-82
2021/05/18 13:10:20;;;;;;;3.28;1.63;;;;;;;;;;4960907;28;20034;-81
2021/05/18 13:13:07;;;;;;;6.22;2.58;;;;;;;;;;4962015;28;20118;-82
2021/05/18 13:16:07;;;;;;;1.60;1.02;;;;;;;;;;4957249;28;20029;-81
2021/05/18 13:19:06;;;;;;;4.90;0.93;;;;;;;;;;4962286;28;20018;-82
2021/05/18 13:21:57;;;;;;;3.17;0.90;;;;;;;;;;4961047;28;20529;-80
2021/05/18 13:28:00;;;;;;;2.78;1.15;;;;;;;;;;4935349;28;20055;-84
2021/05/18 13:30:46;;;;;;;1.92;0.70;;;;;;;;;;4945351;28;20045;-80
2021/05/18 13:33:31;;;;;;;3.25;1.13;;;;;;;;;;4933360;28;20042;-80
2021/05/18 13:36:17;;;;;;;4.50;0.95;;;;;;;;;;4940279;28;20537;-80
2021/05/18 13:39:06;;;;;;;3.08;1.02;;;;;;;;;;4943115;28;20050;-80
2021/05/18 13:41:52;;;;;;;9.18;0.90;;;;;;;;;;4944765;28;20027;-80
2021/05/18 13:44:37;;;;;;;3.35;1.33;;;;;;;;;;4945914;28;20082;-82
2021/05/18 13:47:22;;;;;;;1.65;0.80;;;;;;;;;;4934782;28;20036;-81
2021/05/18 13:50:08;;;;;;;1.67;0.82;;;;;;;;;;4938981;28;20031;-79
2021/05/18 13:52:54;;;;;;;4.38;0.90;;;;;;;;;;4938239;28;20467;-81
2021/05/18 13:55:39;;;;;;;3.35;1.13;;;;;;;;;;4942868;28;20027;-81
2021/05/18 13:58:24;;;;;;;5.53;1.25;;;;;;;;;;4942239;28;20031;-79
2021/05/18 14:01:10;;;;;;;4.32;0.90;;;;;;;;;;4941185;28;20030;-80
2021/05/18 14:03:55;;;;;;;4.65;1.20;;;;;;;;;;4937454;28;20055;-78
2021/05/18 14:10:25;;;;;;;1.67;0.80;;;;;;;;;;4910375;28;20028;-78
2021/05/18 14:13:10;;;;;;;3.53;0.90;;;;;;;;;;4937653;28;20418;-79
2021/05/18 14:15:55;;;;;;;2.65;0.90;;;;;;;;;;4946177;28;20031;-79
2021/05/18 14:18:41;;;;;;;1.90;0.90;;;;;;;;;;4936047;28;20039;-77
2021/05/18 14:21:27;;;;;;;3.08;1.33;;;;;;;;;;4938694;29;20042;-76
2021/05/18 14:24:20;;;;;;;2.47;1.05;;;;;;;;;;4936237;28;20090;-78
2021/05/18 14:27:09;;;;;;;5.75;0.90;;;;;;;;;;4957328;28;20039;-77
2021/05/18 14:29:54;;;;;;;4.97;0.97;;;;;;;;;;4955897;28;20501;-77
2021/05/18 14:32:41;;;;;;;0.75;0.70;;;;;;;;;;4958486;28;20037;-77
2021/05/18 14:35:28;;;;;;;4.05;1.40;;;;;;;;;;4953965;28;20042;-77
2021/05/18 14:44:10;;;;;;;1.95;0.82;;;;;;;;;;4951326;28;20038;-78
2021/05/18 14:55:52;;;;;;;1.52;0.70;;;;;;;;;;4964429;28;20502;-78
2021/05/18 14:58:37;;;;;;;2.00;0.95;;;;;;;;;;4959836;28;20473;-79
2021/05/18 15:01:22;;;;;;;5.22;0.80;;;;;;;;;;4956005;28;20023;-78
2021/05/18 15:04:07;;;;;;;0.60;0.60;;;;;;;;;;4957813;28;20118;-78
2021/05/18 15:06:52;;;;;;;1.58;0.75;;;;;;;;;;4959070;28;20031;-79
2021/05/18 15:09:41;;;;;;;1.00;0.77;;;;;;;;;;4959722;28;20106;-77
2021/05/18 15:12:26;;;;;;;4.35;0.70;;;;;;;;;;4954457;28;20026;-77
2021/05/18 15:15:12;;;;;;;1.98;1.45;;;;;;;;;;4947206;28;20382;-77
2021/05/18 15:17:58;;;;;;;2.15;1.38;;;;;;;;;;4955096;28;20038;-77
2021/05/18 15:20:43;;;;;;;3.13;1.00;;;;;;;;;;4958991;28;20027;-77
2021/05/18 15:23:29;;;;;;;4.65;0.90;;;;;;;;;;4957504;28;20042;-78
2021/05/18 15:26:14;;;;;;;2.05;1.05;;;;;;;;;;4955446;28;20417;-77
2021/05/18 15:28:59;;;;;;;2.80;1.10;;;;;;;;;;4958679;28;20034;-78
2021/05/18 15:31:45;;;;;;;1.58;0.70;;;;;;;;;;4961091;28;20077;-77
2021/05/18 15:34:30;;;;;;;3.42;0.90;;;;;;;;;;4956184;28;20029;-77
2021/05/18 15:37:15;;;;;;;8.50;7.00;;;;;;;;;;4951766;28;20031;-76
2021/05/18 15:40:00;;;;;;;2.17;1.10;;;;;;;;;;4957521;28;20135;-75
2021/05/18 15:42:46;;;;;;;3.33;1.17;;;;;;;;;;4959669;28;20397;-75
2021/05/18 15:45:31;;;;;;;11.15;2.50;;;;;;;;;;4957600;28;20030;-75
2021/05/18 15:48:16;;;;;;;7.72;1.73;;;;;;;;;;4951067;28;20114;-76
2021/05/18 15:51:02;;;;;;;9.82;5.45;;;;;;;;;;4941623;28;20031;-77
2021/05/18 15:53:47;;;;;;;8.93;2.40;;;;;;;;;;4956359;28;20387;-78
2021/05/18 15:56:33;;;;;;;6.07;1.20;;;;;;;;;;4958987;28;20027;-77
2021/05/18 15:59:18;;;;;;;5.00;1.60;;;;;;;;;;4956234;28;20015;-77
2021/05/18 16:02:03;;;;;;;4.07;2.00;;;;;;;;;;4957470;28;20023;-78
2021/05/18 16:04:49;;;;;;;3.25;1.10;;;;;;;;;;4962005;28;20038;-80
2021/05/18 16:07:36;;;;;;;2.25;1.25;;;;;;;;;;4954228;28;20023;-79
2021/05/18 16:10:21;;;;;;;6.57;2.90;;;;;;;;;;4955690;28;20124;-77
2021/05/18 16:13:06;;;;;;;8.38;1.80;;;;;;;;;;4939341;28;20022;-77
2021/05/18 16:15:51;;;;;;;6.32;1.58;;;;;;;;;;4960848;28;20027;-79
2021/05/18 16:18:38;;;;;;;6.60;1.50;;;;;;;;;;4939968;28;20041;-75
2021/05/18 16:21:24;;;;;;;8.13;1.63;;;;;;;;;;4961611;28;20042;-76
2021/05/18 16:24:09;;;;;;;7.03;1.95;;;;;;;;;;4954668;28;20045;-76
2021/05/18 16:26:55;;;;;;;8.18;1.50;;;;;;;;;;4957171;28;20476;-77
2021/05/18 16:29:40;;;;;;;14.30;8.70;;;;;;;;;;4953787;28;20650;-76
2021/05/18 16:32:25;;;;;;;8.40;2.30;;;;;;;;;;4956158;28;20084;-76
2021/05/18 16:35:12;;;;;;;9.68;1.30;;;;;;;;;;4953186;28;20051;-76
2021/05/18 16:37:58;;;;;;;13.27;8.23;;;;;;;;;;4955952;28;20022;-76
2021/05/18 16:40:43;;;;;;;9.90;5.75;;;;;;;;;;4950716;28;20050;-75
2021/05/18 16:43:29;;;;;;;8.05;3.28;;;;;;;;;;4955840;28;20121;-75
2021/05/18 16:46:14;;;;;;;10.13;1.58;;;;;;;;;;4951608;28;20092;-76
2021/05/18 16:48:59;;;;;;;4.07;1.23;;;;;;;;;;4952949;28;20022;-76
2021/05/18 16:51:45;;;;;;;6.20;2.40;;;;;;;;;;4953891;28;20022;-75
2021/05/18 16:54:30;;;;;;;6.65;2.47;;;;;;;;;;4950519;28;20054;-76
2021/05/18 16:57:16;;;;;;;9.63;2.20;;;;;;;;;;4955228;28;20097;-76
2021/05/18 17:00:02;;;;;;;13.98;2.20;;;;;;;;;;4953347;28;20030;-80
2021/05/18 17:02:47;;;;;;;7.47;1.88;;;;;;;;;;4954581;28;20022;-81
2021/05/18 17:05:33;;;;;;;5.47;1.33;;;;;;;;;;4956515;28;20033;-82
2021/05/18 17:08:18;;;;;;;5.43;1.77;;;;;;;;;;4953641;28;20038;-81
2021/05/18 17:11:03;;;;;;;6.80;1.50;;;;;;;;;;4958262;28;20019;-82
2021/05/18 17:13:48;;;;;;;3.55;1.50;;;;;;;;;;4960900;28;20018;-78
2021/05/18 17:16:34;;;;;;;9.30;3.03;;;;;;;;;;4959140;28;20046;-80
2021/05/18 17:19:19;;;;;;;5.65;2.42;;;;;;;;;;4960804;28;20067;-80
2021/05/18 17:22:04;;;;;;;7.43;2.15;;;;;;;;;;4959382;28;20064;-80
2021/05/18 17:24:49;;;;;;;2.50;1.10;;;;;;;;;;4966527;28;20027;-80
2021/05/18 17:27:35;;;;;;;0.85;0.80;;;;;;;;;;4955870;28;20043;-80
2021/05/18 17:30:24;;;;;;;3.75;1.08;;;;;;;;;;4959518;28;20066;-82
2021/05/18 17:33:15;;;;;;;5.78;1.30;;;;;;;;;;4959537;28;20031;-81
2021/05/18 17:36:01;;;;;;;1.90;0.80;;;;;;;;;;4961438;28;20022;-81
2021/05/18 17:38:46;;;;;;;4.53;0.90;;;;;;;;;;4960323;28;20802;-81
2021/05/18 17:41:31;;;;;;;7.28;1.80;;;;;;;;;;4963419;28;20667;-80
2021/05/18 17:44:17;;;;;;;1.38;1.00;;;;;;;;;;4960554;28;20050;-81
2021/05/18 17:47:02;;;;;;;2.35;0.80;;;;;;;;;;4956227;28;20037;-83
2021/05/18 17:49:47;;;;;;;1.15;0.90;;;;;;;;;;4962224;28;20023;-80
2021/05/18 17:52:32;;;;;;;4.63;1.08;;;;;;;;;;4961481;28;20055;-81
2021/05/18 17:55:19;;;;;;;2.78;0.90;;;;;;;;;;4961673;28;20502;-80
2021/05/18 17:58:05;;;;;;;3.75;1.05;;;;;;;;;;4955607;28;20385;-81
2021/05/18 18:00:50;;;;;;;3.20;1.05;;;;;;;;;;4963414;28;20065;-83
2021/05/18 18:03:35;;;;;;;3.72;1.00;;;;;;;;;;4960489;28;20026;-82
2021/05/18 18:06:21;;;;;;;2.28;1.10;;;;;;;;;;4964446;28;20034;-81
2021/05/18 18:09:06;;;;;;;5.60;1.58;;;;;;;;;;4958384;28;20046;-81
2021/05/18 18:11:51;;;;;;;10.18;4.70;;;;;;;;;;4963774;28;20355;-83
2021/05/18 18:14:38;;;;;;;3.80;1.20;;;;;;;;;;4955268;28;20030;-82
2021/05/18 18:17:25;;;;;;;6.55;1.20;;;;;;;;;;4960408;28;20114;-82
2021/05/18 18:20:11;;;;;;;7.00;1.83;;;;;;;;;;4962684;28;20394;-83
2021/05/18 18:22:56;;;;;;;3.85;0.98;;;;;;;;;;4953303;28;20030;-84
2021/05/18 18:25:42;;;;;;;4.22;0.90;;;;;;;;;;4956518;28;20125;-83
2021/05/18 18:28:27;;;;;;;2.55;0.90;;;;;;;;;;4957129;28;23336;-83
2021/05/18 18:31:15;;;;;;;2.95;1.55;;;;;;;;;;4961886;28;20038;-87
2021/05/18 18:34:12;;;;;;;4.63;2.20;;;;;;;;;;4967067;28;20051;-94
2021/05/18 18:37:02;;;;;;;3.67;1.20;;;;;;;;;;4969092;28;20032;-94
2021/05/18 18:39:48;;;;;;;8.02;1.63;;;;;;;;;;4950324;28;20065;-90
2021/05/18 18:42:34;;;;;;;1.75;0.80;;;;;;;;;;4962753;28;20026;-95
2021/05/18 18:45:19;;;;;;;4.82;1.35;;;;;;;;;;4962720;28;20383;-89
2021/05/18 18:48:05;;;;;;;3.63;1.20;;;;;;;;;;4961722;28;20062;-88
2021/05/18 18:51:15;;;;;;;2.47;0.98;;;;;;;;;;4972074;28;20023;-90
2021/05/18 19:13:52;;;;;;;3.45;1.50;;;;;;;;;;5731157;23;20046;-94
2021/05/18 19:16:42;;;;;;;3.97;1.65;;;;;;;;;;4940490;28;20062;-93
2021/05/18 19:19:27;;;;;;;5.82;1.40;;;;;;;;;;4951138;28;20065;-89
2021/05/18 19:22:12;;;;;;;3.28;1.30;;;;;;;;;;4941752;29;20096;-92
2021/05/18 19:24:58;;;;;;;2.85;1.40;;;;;;;;;;4946170;28;20591;-90
2021/05/18 19:27:45;;;;;;;1.77;1.15;;;;;;;;;;4943968;29;20027;-91
2021/05/18 19:30:31;;;;;;;2.80;1.30;;;;;;;;;;4951581;28;20122;-91
2021/05/18 19:33:18;;;;;;;10.35;1.85;;;;;;;;;;4954475;28;20030;-91
2021/05/18 19:45:16;;;;;;;4.50;1.70;;;;;;;;;;4939650;28;20031;-90
2021/05/18 19:50:46;;;;;;;3.05;1.50;;;;;;;;;;4943998;28;20062;-80
2021/05/18 19:53:34;;;;;;;4.28;1.60;;;;;;;;;;4942583;28;20031;-79
2021/05/18 19:56:35;;;;;;;2.25;1.02;;;;;;;;;;4943687;28;20099;-78
2021/05/18 20:17:55;;;;;;;5.28;2.08;;;;;;;;;;4934835;28;20035;-78
2021/05/18 20:20:49;;;;;;;4.82;1.90;;;;;;;;;;4942657;28;20490;-79
2021/05/18 20:23:34;;;;;;;16.08;8.07;;;;;;;;;;4933812;29;20066;-79
2021/05/18 20:26:20;;;;;;;14.68;9.85;;;;;;;;;;4935642;29;20031;-90
2021/05/18 20:29:05;;;;;;;5.43;2.88;;;;;;;;;;4936322;28;20572;-93
2021/05/18 20:31:53;;;;;;;3.38;1.85;;;;;;;;;;4943545;28;20023;-92
2021/05/18 20:40:37;;;;;;;6.07;2.30;;;;;;;;;;4941838;29;20039;-84
2021/05/18 20:43:22;;;;;;;6.35;2.67;;;;;;;;;;4931524;28;20321;-89
2021/05/18 20:46:08;;;;;;;4.03;2.10;;;;;;;;;;4938517;29;20035;-87
2021/05/18 20:48:53;;;;;;;3.17;1.40;;;;;;;;;;4946621;29;20027;-88
2021/05/18 20:51:40;;;;;;;6.28;2.05;;;;;;;;;;4951529;29;20075;-92
2021/05/18 20:54:25;;;;;;;2.15;1.15;;;;;;;;;;4931142;29;20047;-90
2021/05/18 20:57:10;;;;;;;4.43;1.70;;;;;;;;;;4935499;28;20482;-91
2021/05/18 20:59:55;;;;;;;4.30;1.85;;;;;;;;;;4951349;29;20050;-92
2021/05/18 21:02:43;;;;;;;3.42;1.60;;;;;;;;;;4947527;29;20066;-92
2021/05/18 21:05:30;;;;;;;4.38;1.80;;;;;;;;;;4952709;28;20034;-91
2021/05/18 21:11:47;;;;;;;3.30;1.25;;;;;;;;;;4947938;28;20055;-92
2021/05/18 21:17:36;;;;;;;1.95;1.42;;;;;;;;;;4949315;28;20472;-87
2021/05/18 21:20:21;;;;;;;4.90;1.63;;;;;;;;;;4948299;29;20094;-90
2021/05/18 21:23:07;;;;;;;2.53;1.23;;;;;;;;;;4941522;28;20122;-86
2021/05/18 21:25:52;;;;;;;3.10;1.40;;;;;;;;;;4942833;28;20809;-88
2021/05/18 21:28:37;;;;;;;4.35;1.33;;;;;;;;;;4942660;29;20390;-89
2021/05/18 21:31:23;;;;;;;4.15;1.50;;;;;;;;;;4927625;28;20600;-88
2021/05/18 21:34:09;;;;;;;3.67;1.58;;;;;;;;;;4942952;28;20031;-90
2021/05/18 21:36:54;;;;;;;4.50;1.80;;;;;;;;;;4948711;28;20798;-90
2021/05/18 21:39:43;;;;;;;7.35;1.63;;;;;;;;;;4952630;28;20031;-89
2021/05/18 21:42:33;;;;;;;4.38;1.67;;;;;;;;;;4943720;28;20127;-90
2021/05/18 21:45:18;;;;;;;;;;;;;;;;;;4941294;28;20059;-87
2021/05/18 21:48:03;;;;;;;5.22;1.85;;;;;;;;;;4940669;28;19952;-89
2021/05/18 21:50:49;;;;;;;2.42;1.55;;;;;;;;;;4944386;29;20730;-89
2021/05/18 21:53:34;;;;;;;3.30;2.15;;;;;;;;;;4938028;29;20102;-89
2021/05/18 21:56:20;;;;;;;4.00;1.95;;;;;;;;;;4937492;29;20099;-88
2021/05/18 21:59:05;;;;;;;7.78;2.08;;;;;;;;;;4938313;29;20142;-89
2021/05/18 22:01:50;;;;;;;3.20;1.60;;;;;;;;;;4939627;29;20050;-90
2021/05/18 22:04:36;;;;;;;4.07;1.90;;;;;;;;;;4937578;28;20045;-89
2021/05/18 22:07:22;;;;;;;3.83;1.88;;;;;;;;;;4940399;28;20034;-90
2021/05/18 22:10:16;;;;;;;5.10;1.77;;;;;;;;;;4932843;29;20031;-90
2021/05/18 22:16:21;;;;;;;4.57;2.05;;;;;;;;;;4941613;28;20039;-90
2021/05/18 22:28:11;;;;;;;5.25;2.22;;;;;;;;;;4947084;28;20568;-90
2021/05/18 22:30:56;;;;;;;5.20;1.95;;;;;;;;;;4937627;29;20368;-88
2021/05/18 22:33:41;;;;;;;4.03;1.80;;;;;;;;;;4927157;29;20190;-88
2021/05/18 22:36:27;;;;;;;5.75;1.77;;;;;;;;;;4940116;28;20027;-89
2021/05/18 22:39:12;;;;;;;2.95;1.98;;;;;;;;;;4938072;28;20062;-89
2021/05/18 22:41:58;;;;;;;5.85;2.00;;;;;;;;;;4940436;29;20031;-91
2021/05/18 22:44:43;;;;;;;4.35;2.03;;;;;;;;;;4938935;28;20034;-90
2021/05/18 22:47:28;;;;;;;6.40;1.63;;;;;;;;;;4940156;28;20490;-88
2021/05/18 22:50:13;;;;;;;7.70;1.92;;;;;;;;;;4935060;28;20497;-90
2021/05/18 22:52:58;;;;;;;4.55;2.30;;;;;;;;;;4940614;29;20038;-89
2021/05/18 22:55:44;;;;;;;3.78;2.03;;;;;;;;;;4936507;28;20043;-89
2021/05/18 22:58:29;;;;;;;5.55;1.70;;;;;;;;;;4934235;28;20082;-89